sensor_id;sensor_type;location;lat;lon;timestamp;pressure;altitude;pressure_sealevel;temperature;humidity
11017;BME280;54687;50.800;6.772;2023-06-04T00:02:01;59864.72;;;-144.06;22.96
11017;BME280;54687;50.800;6.772;2023-06-04T00:04:28;59831.22;;;-144.06;22.78
11017;BME280;54687;50.800;6.772;2023-06-04T00:06:55;59839.59;;;-144.06;23.03
11017;BME280;54687;50.800;6.772;2023-06-04T00:09:22;59833.31;;;-144.06;22.89
11017;BME280;54687;50.800;6.772;2023-06-04T00:11:49;59835.41;;;-144.06;23.15
11017;BME280;54687;50.800;6.772;2023-06-04T00:14:16;59831.22;;;-144.06;23.11
11017;BME280;54687;50.800;6.772;2023-06-04T00:16:44;59845.88;;;-144.06;23.27
11017;BME280;54687;50.800;6.772;2023-06-04T00:19:10;59845.88;;;-144.06;23.28
11017;BME280;54687;50.800;6.772;2023-06-04T00:21:37;59841.69;;;-144.06;23.26
11017;BME280;54687;50.800;6.772;2023-06-04T00:24:04;59864.72;;;-144.06;23.22
11017;BME280;54687;50.800;6.772;2023-06-04T00:26:31;59875.22;;;-144.06;23.33
11017;BME280;54687;50.800;6.772;2023-06-04T00:28:57;59891.97;;;-144.06;23.13
11017;BME280;54687;50.800;6.772;2023-06-04T00:31:24;59852.16;;;-144.06;23.43
11017;BME280;54687;50.800;6.772;2023-06-04T00:33:52;59881.50;;;-144.06;23.53
11017;BME280;54687;50.800;6.772;2023-06-04T00:36:19;59889.88;;;-144.06;23.21
11017;BME280;54687;50.800;6.772;2023-06-04T00:38:46;59915.03;;;-144.06;23.37
11017;BME280;54687;50.800;6.772;2023-06-04T00:41:12;59894.06;;;-144.06;23.53
11017;BME280;54687;50.800;6.772;2023-06-04T00:43:39;59894.06;;;-144.06;23.60
11017;BME280;54687;50.800;6.772;2023-06-04T00:46:06;59868.94;;;-144.06;23.50
11017;BME280;54687;50.800;6.772;2023-06-04T00:48:33;59873.13;;;-144.06;23.74
11017;BME280;54687;50.800;6.772;2023-06-04T00:51:03;59850.06;;;-144.06;23.35
11017;BME280;54687;50.800;6.772;2023-06-04T00:53:30;59864.72;;;-144.06;23.45
11017;BME280;54687;50.800;6.772;2023-06-04T00:55:57;59887.78;;;-144.06;23.53
11017;BME280;54687;50.800;6.772;2023-06-04T00:58:23;59889.88;;;-144.06;23.55
11017;BME280;54687;50.800;6.772;2023-06-04T01:00:52;59883.59;;;-144.06;23.57
11017;BME280;54687;50.800;6.772;2023-06-04T01:03:23;59860.53;;;-144.06;23.56
11017;BME280;54687;50.800;6.772;2023-06-04T01:05:58;59868.94;;;-144.06;23.59
11017;BME280;54687;50.800;6.772;2023-06-04T01:08:28;59875.22;;;-144.06;23.87
11017;BME280;54687;50.800;6.772;2023-06-04T01:10:56;59864.72;;;-144.06;23.57
11017;BME280;54687;50.800;6.772;2023-06-04T01:13:24;59862.63;;;-144.06;23.55
11017;BME280;54687;50.800;6.772;2023-06-04T01:15:51;59894.06;;;-144.06;23.78
11017;BME280;54687;50.800;6.772;2023-06-04T01:18:24;59885.69;;;-144.06;23.96
11017;BME280;54687;50.800;6.772;2023-06-04T01:20:57;59894.06;;;-144.06;23.53
11017;BME280;54687;50.800;6.772;2023-06-04T01:23:31;59898.25;;;-144.06;23.91
11017;BME280;54687;50.800;6.772;2023-06-04T01:26:01;59866.84;;;-144.06;23.85
11017;BME280;54687;50.800;6.772;2023-06-04T01:28:30;59906.66;;;-144.06;23.65
11017;BME280;54687;50.800;6.772;2023-06-04T01:30:57;59898.25;;;-144.06;23.62
11017;BME280;54687;50.800;6.772;2023-06-04T01:33:25;59860.53;;;-144.06;23.97
11017;BME280;54687;50.800;6.772;2023-06-04T01:35:52;59894.06;;;-144.06;23.97
11017;BME280;54687;50.800;6.772;2023-06-04T01:38:18;59896.16;;;-144.06;23.70
11017;BME280;54687;50.800;6.772;2023-06-04T01:40:46;59889.88;;;-144.06;23.82
11017;BME280;54687;50.800;6.772;2023-06-04T01:43:13;59881.50;;;-144.06;23.99
11017;BME280;54687;50.800;6.772;2023-06-04T01:45:40;59871.03;;;-144.06;23.89
11017;BME280;54687;50.800;6.772;2023-06-04T01:48:07;59885.69;;;-144.06;23.84
11017;BME280;54687;50.800;6.772;2023-06-04T01:50:33;59868.94;;;-144.06;23.97
11017;BME280;54687;50.800;6.772;2023-06-04T01:53:00;59881.50;;;-144.06;23.89
11017;BME280;54687;50.800;6.772;2023-06-04T01:55:27;59887.78;;;-144.06;23.98
11017;BME280;54687;50.800;6.772;2023-06-04T01:58:00;59919.22;;;-144.06;24.05
11017;BME280;54687;50.800;6.772;2023-06-04T02:00:26;59889.88;;;-144.06;24.02
11017;BME280;54687;50.800;6.772;2023-06-04T02:02:53;59898.25;;;-144.06;24.38
11017;BME280;54687;50.800;6.772;2023-06-04T02:05:21;59906.66;;;-144.06;24.14
11017;BME280;54687;50.800;6.772;2023-06-04T02:07:48;59917.13;;;-144.06;24.19
11017;BME280;54687;50.800;6.772;2023-06-04T02:10:16;59856.34;;;-144.06;24.24
11017;BME280;54687;50.800;6.772;2023-06-04T02:12:53;59885.69;;;-144.06;24.52
11017;BME280;54687;50.800;6.772;2023-06-04T02:15:22;59906.66;;;-144.06;24.55
11017;BME280;54687;50.800;6.772;2023-06-04T02:17:49;59902.44;;;-144.06;24.37
11017;BME280;54687;50.800;6.772;2023-06-04T02:20:15;59927.59;;;-144.06;24.58
11017;BME280;54687;50.800;6.772;2023-06-04T02:22:42;59915.03;;;-144.06;24.37
11017;BME280;54687;50.800;6.772;2023-06-04T02:25:09;59927.59;;;-144.06;24.36
11017;BME280;54687;50.800;6.772;2023-06-04T02:27:35;59915.03;;;-144.06;24.60
11017;BME280;54687;50.800;6.772;2023-06-04T02:30:02;59944.38;;;-144.06;24.44
11017;BME280;54687;50.800;6.772;2023-06-04T02:32:30;59912.94;;;-144.06;24.42
11017;BME280;54687;50.800;6.772;2023-06-04T02:34:58;59954.84;;;-144.06;24.45
11017;BME280;54687;50.800;6.772;2023-06-04T02:37:25;59927.59;;;-144.06;24.70
11017;BME280;54687;50.800;6.772;2023-06-04T02:39:52;59952.75;;;-144.06;24.41
11017;BME280;54687;50.800;6.772;2023-06-04T02:42:19;59935.97;;;-144.06;24.48
11017;BME280;54687;50.800;6.772;2023-06-04T02:44:45;59967.41;;;-144.06;24.75
11017;BME280;54687;50.800;6.772;2023-06-04T02:47:12;59904.56;;;-144.06;24.95
11017;BME280;54687;50.800;6.772;2023-06-04T02:49:40;59933.88;;;-144.06;24.56
11017;BME280;54687;50.800;6.772;2023-06-04T02:52:06;59935.97;;;-144.06;24.56
11017;BME280;54687;50.800;6.772;2023-06-04T02:54:33;59935.97;;;-144.06;24.85
11017;BME280;54687;50.800;6.772;2023-06-04T02:56:59;59919.22;;;-144.06;24.84
11017;BME280;54687;50.800;6.772;2023-06-04T02:59:26;59921.31;;;-144.06;24.66
11017;BME280;54687;50.800;6.772;2023-06-04T03:01:53;59919.22;;;-144.06;24.63
11017;BME280;54687;50.800;6.772;2023-06-04T03:04:19;59906.66;;;-144.06;24.49
11017;BME280;54687;50.800;6.772;2023-06-04T03:06:47;59952.75;;;-144.06;24.65
11017;BME280;54687;50.800;6.772;2023-06-04T03:09:23;59942.28;;;-144.06;24.70
11017;BME280;54687;50.800;6.772;2023-06-04T03:11:49;59948.56;;;-144.06;24.67
11017;BME280;54687;50.800;6.772;2023-06-04T03:14:16;59944.38;;;-144.06;24.62
11017;BME280;54687;50.800;6.772;2023-06-04T03:16:43;59921.31;;;-144.06;24.82
11017;BME280;54687;50.800;6.772;2023-06-04T03:19:10;59977.91;;;-144.06;24.83
11017;BME280;54687;50.800;6.772;2023-06-04T03:21:36;59986.28;;;-144.06;24.83
11017;BME280;54687;50.800;6.772;2023-06-04T03:24:06;59963.22;;;-144.06;24.69
11017;BME280;54687;50.800;6.772;2023-06-04T03:26:33;59940.16;;;-144.06;24.88
11017;BME280;54687;50.800;6.772;2023-06-04T03:28:59;59948.56;;;-144.06;24.83
11017;BME280;54687;50.800;6.772;2023-06-04T03:31:26;59977.91;;;-144.06;24.81
11017;BME280;54687;50.800;6.772;2023-06-04T03:33:52;59940.16;;;-144.06;24.83
11017;BME280;54687;50.800;6.772;2023-06-04T03:36:19;59967.41;;;-144.06;24.79
11017;BME280;54687;50.800;6.772;2023-06-04T03:38:45;59961.13;;;-144.06;24.68
11017;BME280;54687;50.800;6.772;2023-06-04T03:41:13;59969.50;;;-144.06;24.84
11017;BME280;54687;50.800;6.772;2023-06-04T03:43:41;59956.94;;;-144.06;24.75
11017;BME280;54687;50.800;6.772;2023-06-04T03:46:07;59973.69;;;-144.06;24.61
11017;BME280;54687;50.800;6.772;2023-06-04T03:48:34;59944.38;;;-144.06;24.78
11017;BME280;54687;50.800;6.772;2023-06-04T03:51:01;59956.94;;;-144.06;25.06
11017;BME280;54687;50.800;6.772;2023-06-04T03:53:27;59948.56;;;-144.06;24.86
11017;BME280;54687;50.800;6.772;2023-06-04T03:55:55;59948.56;;;-144.06;24.92
11017;BME280;54687;50.800;6.772;2023-06-04T03:58:23;59952.75;;;-144.06;24.75
11017;BME280;54687;50.800;6.772;2023-06-04T04:00:50;59927.59;;;-144.06;24.80
11017;BME280;54687;50.800;6.772;2023-06-04T04:03:16;59935.97;;;-144.06;24.86
11017;BME280;54687;50.800;6.772;2023-06-04T04:05:43;59965.31;;;-144.06;24.92
11017;BME280;54687;50.800;6.772;2023-06-04T04:08:10;59973.69;;;-144.06;24.79
11017;BME280;54687;50.800;6.772;2023-06-04T04:10:36;59931.78;;;-144.06;24.76
11017;BME280;54687;50.800;6.772;2023-06-04T04:13:03;59963.22;;;-144.06;24.69
11017;BME280;54687;50.800;6.772;2023-06-04T04:15:31;59952.75;;;-144.06;24.69
11017;BME280;54687;50.800;6.772;2023-06-04T04:17:57;59940.16;;;-144.06;24.73
11017;BME280;54687;50.800;6.772;2023-06-04T04:20:24;59956.94;;;-144.06;24.67
11017;BME280;54687;50.800;6.772;2023-06-04T04:22:51;59919.22;;;-144.06;24.66
11017;BME280;54687;50.800;6.772;2023-06-04T04:25:18;59952.75;;;-144.06;24.55
11017;BME280;54687;50.800;6.772;2023-06-04T04:27:44;59940.16;;;-144.06;24.53
11017;BME280;54687;50.800;6.772;2023-06-04T04:30:14;59940.16;;;-144.06;24.57
11017;BME280;54687;50.800;6.772;2023-06-04T04:32:43;59923.41;;;-144.06;24.39
11017;BME280;54687;50.800;6.772;2023-06-04T04:35:14;59877.31;;;-144.06;24.49
11017;BME280;54687;50.800;6.772;2023-06-04T04:37:43;59917.13;;;-144.06;24.36
11017;BME280;54687;50.800;6.772;2023-06-04T04:40:10;59889.88;;;-144.06;24.29
11017;BME280;54687;50.800;6.772;2023-06-04T04:42:37;59864.72;;;-144.06;24.34
11017;BME280;54687;50.800;6.772;2023-06-04T04:45:05;59881.50;;;-144.06;23.95
11017;BME280;54687;50.800;6.772;2023-06-04T04:47:32;59885.69;;;-144.06;24.09
11017;BME280;54687;50.800;6.772;2023-06-04T04:50:00;59873.13;;;-144.06;24.09
11017;BME280;54687;50.800;6.772;2023-06-04T04:52:26;59858.44;;;-144.06;23.79
11017;BME280;54687;50.800;6.772;2023-06-04T04:54:53;59839.59;;;-144.06;23.94
11017;BME280;54687;50.800;6.772;2023-06-04T04:57:22;59831.22;;;-144.06;23.60
11017;BME280;54687;50.800;6.772;2023-06-04T04:59:49;59839.59;;;-144.06;23.71
11017;BME280;54687;50.800;6.772;2023-06-04T05:02:16;59856.34;;;-144.06;23.62
11017;BME280;54687;50.800;6.772;2023-06-04T05:04:42;59866.84;;;-144.06;23.75
11017;BME280;54687;50.800;6.772;2023-06-04T05:07:10;59820.72;;;-144.06;23.62
11017;BME280;54687;50.800;6.772;2023-06-04T05:09:37;59833.31;;;-144.06;23.49
11017;BME280;54687;50.800;6.772;2023-06-04T05:12:04;59831.22;;;-144.06;23.29
11017;BME280;54687;50.800;6.772;2023-06-04T05:14:32;59827.00;;;-144.06;23.56
11017;BME280;54687;50.800;6.772;2023-06-04T05:17:01;59801.88;;;-144.06;23.49
11017;BME280;54687;50.800;6.772;2023-06-04T05:19:28;59812.34;;;-144.06;23.66
11017;BME280;54687;50.800;6.772;2023-06-04T05:21:58;59814.44;;;-144.06;23.54
11017;BME280;54687;50.800;6.772;2023-06-04T05:24:27;59793.50;;;-144.06;23.25
11017;BME280;54687;50.800;6.772;2023-06-04T05:26:54;59789.31;;;-144.06;23.45
11017;BME280;54687;50.800;6.772;2023-06-04T05:29:22;59764.16;;;-144.06;23.11
11017;BME280;54687;50.800;6.772;2023-06-04T05:31:48;59768.34;;;-144.06;23.02
11017;BME280;54687;50.800;6.772;2023-06-04T05:34:15;59751.59;;;-144.06;22.82
11017;BME280;54687;50.800;6.772;2023-06-04T05:36:43;59713.88;;;-144.06;23.11
11017;BME280;54687;50.800;6.772;2023-06-04T05:39:10;59705.47;;;-144.06;22.62
11017;BME280;54687;50.800;6.772;2023-06-04T05:41:38;59703.38;;;-144.06;22.51
11017;BME280;54687;50.800;6.772;2023-06-04T05:44:06;59715.97;;;-144.06;22.39
11017;BME280;54687;50.800;6.772;2023-06-04T05:46:32;59676.16;;;-144.06;22.10
11017;BME280;54687;50.800;6.772;2023-06-04T05:48:59;59651.00;;;-144.06;22.20
11017;BME280;54687;50.800;6.772;2023-06-04T05:51:25;59651.00;;;-144.06;22.02
11017;BME280;54687;50.800;6.772;2023-06-04T05:53:52;59619.56;;;-144.06;21.96
11017;BME280;54687;50.800;6.772;2023-06-04T05:56:19;59571.38;;;-144.06;21.98
11017;BME280;54687;50.800;6.772;2023-06-04T05:58:52;59579.75;;;-144.06;21.64
11017;BME280;54687;50.800;6.772;2023-06-04T06:01:19;59493.84;;;-144.06;21.08
11017;BME280;54687;50.800;6.772;2023-06-04T06:03:45;59441.47;;;-144.06;20.88
11017;BME280;54687;50.800;6.772;2023-06-04T06:06:12;59422.63;;;-144.06;20.73
11017;BME280;54687;50.800;6.772;2023-06-04T06:08:38;59305.28;;;-144.06;20.42
11017;BME280;54687;50.800;6.772;2023-06-04T06:11:05;59382.81;;;-144.06;20.10
11017;BME280;54687;50.800;6.772;2023-06-04T06:13:32;59332.53;;;-144.06;20.21
11017;BME280;54687;50.800;6.772;2023-06-04T06:16:00;59294.81;;;-144.06;20.12
11017;BME280;54687;50.800;6.772;2023-06-04T06:18:27;59236.16;;;-144.06;19.95
11017;BME280;54687;50.800;6.772;2023-06-04T06:20:54;59187.97;;;-144.06;19.55
11017;BME280;54687;50.800;6.772;2023-06-04T06:23:20;59097.88;;;-144.06;19.40
11017;BME280;54687;50.800;6.772;2023-06-04T06:25:49;59018.25;;;-144.06;19.34
11017;BME280;54687;50.800;6.772;2023-06-04T06:28:17;58957.50;;;-144.06;18.82
11017;BME280;54687;50.800;6.772;2023-06-04T06:30:44;58823.44;;;-144.06;18.70
11017;BME280;54687;50.800;6.772;2023-06-04T06:33:12;58771.06;;;-144.06;18.06
11017;BME280;54687;50.800;6.772;2023-06-04T06:35:38;58674.72;;;-144.06;17.97
11017;BME280;54687;50.800;6.772;2023-06-04T06:38:05;58678.91;;;-144.06;17.90
11017;BME280;54687;50.800;6.772;2023-06-04T06:40:32;58565.78;;;-144.06;17.64
11017;BME280;54687;50.800;6.772;2023-06-04T06:42:58;58414.97;;;-144.06;17.20
11017;BME280;54687;50.800;6.772;2023-06-04T06:45:25;58398.22;;;-144.06;17.06
11017;BME280;54687;50.800;6.772;2023-06-04T06:47:51;58815.06;;;-144.06;18.18
11017;BME280;54687;50.800;6.772;2023-06-04T06:50:19;58947.03;;;-144.06;18.55
11017;BME280;54687;50.800;6.772;2023-06-04T06:52:46;58959.59;;;-144.06;18.90
11017;BME280;54687;50.800;6.772;2023-06-04T06:55:12;58984.75;;;-144.06;18.85
11017;BME280;54687;50.800;6.772;2023-06-04T06:57:39;59097.88;;;-144.06;19.09
11017;BME280;54687;50.800;6.772;2023-06-04T07:00:07;59083.22;;;-144.06;19.07
11017;BME280;54687;50.800;6.772;2023-06-04T07:02:34;59148.16;;;-144.06;19.04
11017;BME280;54687;50.800;6.772;2023-06-04T07:05:00;59141.88;;;-144.06;18.96
11017;BME280;54687;50.800;6.772;2023-06-04T07:07:28;59160.72;;;-144.06;19.29
11017;BME280;54687;50.800;6.772;2023-06-04T07:09:57;59265.47;;;-144.06;19.23
11017;BME280;54687;50.800;6.772;2023-06-04T07:12:23;59296.91;;;-144.06;19.65
11017;BME280;54687;50.800;6.772;2023-06-04T07:14:50;59405.84;;;-144.06;19.79
11017;BME280;54687;50.800;6.772;2023-06-04T07:17:16;59441.47;;;-144.06;19.99
11017;BME280;54687;50.800;6.772;2023-06-04T07:19:43;59433.09;;;-144.06;20.34
11017;BME280;54687;50.800;6.772;2023-06-04T07:22:10;59449.84;;;-144.06;20.51
11017;BME280;54687;50.800;6.772;2023-06-04T07:24:38;59521.09;;;-144.06;20.56
11017;BME280;54687;50.800;6.772;2023-06-04T07:27:10;59516.91;;;-144.06;20.59
11017;BME280;54687;50.800;6.772;2023-06-04T07:29:37;59558.81;;;-144.06;21.01
11017;BME280;54687;50.800;6.772;2023-06-04T07:32:04;59596.53;;;-144.06;21.10
11017;BME280;54687;50.800;6.772;2023-06-04T07:34:30;59609.09;;;-144.06;21.20
11017;BME280;54687;50.800;6.772;2023-06-04T07:36:57;59586.03;;;-144.06;21.17
11017;BME280;54687;50.800;6.772;2023-06-04T07:39:24;59609.09;;;-144.06;21.31
11017;BME280;54687;50.800;6.772;2023-06-04T07:41:52;59611.19;;;-144.06;21.56
11017;BME280;54687;50.800;6.772;2023-06-04T07:44:19;59625.84;;;-144.06;21.74
11017;BME280;54687;50.800;6.772;2023-06-04T07:46:45;59627.94;;;-144.06;21.51
11017;BME280;54687;50.800;6.772;2023-06-04T07:49:12;59619.56;;;-144.06;21.57
11017;BME280;54687;50.800;6.772;2023-06-04T07:51:38;59653.09;;;-144.06;21.85
11017;BME280;54687;50.800;6.772;2023-06-04T07:54:05;59701.28;;;-144.06;22.06
11017;BME280;54687;50.800;6.772;2023-06-04T07:56:32;59634.25;;;-144.06;21.88
11017;BME280;54687;50.800;6.772;2023-06-04T07:59:00;59657.28;;;-144.06;21.99
11017;BME280;54687;50.800;6.772;2023-06-04T08:01:27;59667.75;;;-144.06;21.79
11017;BME280;54687;50.800;6.772;2023-06-04T08:03:53;59665.66;;;-144.06;21.70
11017;BME280;54687;50.800;6.772;2023-06-04T08:06:20;59646.81;;;-144.06;21.75
11017;BME280;54687;50.800;6.772;2023-06-04T08:08:48;59667.75;;;-144.06;21.52
11017;BME280;54687;50.800;6.772;2023-06-04T08:11:15;59648.91;;;-144.06;21.67
11017;BME280;54687;50.800;6.772;2023-06-04T08:13:42;59659.38;;;-144.06;21.73
11017;BME280;54687;50.800;6.772;2023-06-04T08:16:10;59676.16;;;-144.06;21.68
11017;BME280;54687;50.800;6.772;2023-06-04T08:18:37;59646.81;;;-144.06;21.74
11017;BME280;54687;50.800;6.772;2023-06-04T08:21:04;59671.97;;;-144.06;21.77
11017;BME280;54687;50.800;6.772;2023-06-04T08:23:31;59648.91;;;-144.06;21.60
11017;BME280;54687;50.800;6.772;2023-06-04T08:25:57;59659.38;;;-144.06;21.77
11017;BME280;54687;50.800;6.772;2023-06-04T08:28:25;59661.47;;;-144.06;21.42
11017;BME280;54687;50.800;6.772;2023-06-04T08:30:51;59630.06;;;-144.06;21.42
11017;BME280;54687;50.800;6.772;2023-06-04T08:33:19;59592.34;;;-144.06;21.17
11017;BME280;54687;50.800;6.772;2023-06-04T08:35:46;59638.44;;;-144.06;21.28
11017;BME280;54687;50.800;6.772;2023-06-04T08:38:12;59613.28;;;-144.06;21.01
11017;BME280;54687;50.800;6.772;2023-06-04T08:40:39;59615.38;;;-144.06;21.19
11017;BME280;54687;50.800;6.772;2023-06-04T08:43:06;59642.63;;;-144.06;21.18
11017;BME280;54687;50.800;6.772;2023-06-04T08:45:39;59609.09;;;-144.06;21.07
11017;BME280;54687;50.800;6.772;2023-06-04T08:48:09;59665.66;;;-144.06;20.61
11017;BME280;54687;50.800;6.772;2023-06-04T08:50:39;59609.09;;;-144.06;20.63
11017;BME280;54687;50.800;6.772;2023-06-04T08:53:11;59613.28;;;-144.06;20.75
11017;BME280;54687;50.800;6.772;2023-06-04T08:55:40;59646.81;;;-144.06;20.67
11017;BME280;54687;50.800;6.772;2023-06-04T08:58:07;59638.44;;;-144.06;20.82
11017;BME280;54687;50.800;6.772;2023-06-04T09:00:36;59623.75;;;-144.06;20.60
11017;BME280;54687;50.800;6.772;2023-06-04T09:03:03;59623.75;;;-144.06;20.40
11017;BME280;54687;50.800;6.772;2023-06-04T09:05:30;59653.09;;;-144.06;20.24
11017;BME280;54687;50.800;6.772;2023-06-04T09:08:01;59655.19;;;-144.06;20.19
11017;BME280;54687;50.800;6.772;2023-06-04T09:10:29;59653.09;;;-144.06;20.46
11017;BME280;54687;50.800;6.772;2023-06-04T09:12:57;59684.53;;;-144.06;20.44
11017;BME280;54687;50.800;6.772;2023-06-04T09:15:26;59676.16;;;-144.06;20.49
11017;BME280;54687;50.800;6.772;2023-06-04T09:17:53;59667.75;;;-144.06;20.27
11017;BME280;54687;50.800;6.772;2023-06-04T09:20:20;59625.84;;;-144.06;20.38
11017;BME280;54687;50.800;6.772;2023-06-04T09:22:47;59600.72;;;-144.06;20.39
11017;BME280;54687;50.800;6.772;2023-06-04T09:25:20;59646.81;;;-144.06;20.41
11017;BME280;54687;50.800;6.772;2023-06-04T09:27:48;59619.56;;;-144.06;20.17
11017;BME280;54687;50.800;6.772;2023-06-04T09:30:14;59615.38;;;-144.06;20.36
11017;BME280;54687;50.800;6.772;2023-06-04T09:32:41;59638.44;;;-144.06;20.23
11017;BME280;54687;50.800;6.772;2023-06-04T09:35:09;59592.34;;;-144.06;20.25
11017;BME280;54687;50.800;6.772;2023-06-04T09:37:39;59575.56;;;-144.06;20.04
11017;BME280;54687;50.800;6.772;2023-06-04T09:40:07;59623.75;;;-144.06;19.87
11017;BME280;54687;50.800;6.772;2023-06-04T09:42:43;59592.34;;;-144.06;19.62
11017;BME280;54687;50.800;6.772;2023-06-04T09:45:10;59638.44;;;-144.06;19.73
11017;BME280;54687;50.800;6.772;2023-06-04T09:47:42;59604.91;;;-144.06;19.97
11017;BME280;54687;50.800;6.772;2023-06-04T09:50:10;59604.91;;;-144.06;19.93
11017;BME280;54687;50.800;6.772;2023-06-04T09:52:37;59617.47;;;-144.06;19.91
11017;BME280;54687;50.800;6.772;2023-06-04T09:55:15;59596.53;;;-144.06;20.05
11017;BME280;54687;50.800;6.772;2023-06-04T09:57:48;59602.81;;;-144.06;20.07
11017;BME280;54687;50.800;6.772;2023-06-04T10:00:16;59611.19;;;-144.06;19.76
11017;BME280;54687;50.800;6.772;2023-06-04T10:02:44;59613.28;;;-144.06;19.87
11017;BME280;54687;50.800;6.772;2023-06-04T10:05:13;59588.16;;;-144.06;19.85
11017;BME280;54687;50.800;6.772;2023-06-04T10:07:43;59617.47;;;-144.06;19.92
11017;BME280;54687;50.800;6.772;2023-06-04T10:10:14;59550.44;;;-144.06;19.84
11017;BME280;54687;50.800;6.772;2023-06-04T10:12:42;59627.94;;;-144.06;19.92
11017;BME280;54687;50.800;6.772;2023-06-04T10:15:12;59573.47;;;-144.06;19.62
11017;BME280;54687;50.800;6.772;2023-06-04T10:17:39;59613.28;;;-144.06;19.75
11017;BME280;54687;50.800;6.772;2023-06-04T10:20:07;59613.28;;;-144.06;19.65
11017;BME280;54687;50.800;6.772;2023-06-04T10:22:35;59598.63;;;-144.06;19.52
11017;BME280;54687;50.800;6.772;2023-06-04T10:25:01;59596.53;;;-144.06;19.43
11017;BME280;54687;50.800;6.772;2023-06-04T10:27:30;59560.91;;;-144.06;19.43
11017;BME280;54687;50.800;6.772;2023-06-04T10:29:57;59588.16;;;-144.06;19.36
11017;BME280;54687;50.800;6.772;2023-06-04T10:32:28;59554.63;;;-144.06;19.49
11017;BME280;54687;50.800;6.772;2023-06-04T10:34:55;59567.19;;;-144.06;19.21
11017;BME280;54687;50.800;6.772;2023-06-04T10:37:23;59558.81;;;-144.06;19.72
11017;BME280;54687;50.800;6.772;2023-06-04T10:39:51;59596.53;;;-144.06;19.19
11017;BME280;54687;50.800;6.772;2023-06-04T10:42:19;59607.00;;;-144.06;19.33
11017;BME280;54687;50.800;6.772;2023-06-04T10:44:47;59573.47;;;-144.06;19.54
11017;BME280;54687;50.800;6.772;2023-06-04T10:47:19;59554.63;;;-144.06;19.29
11017;BME280;54687;50.800;6.772;2023-06-04T10:49:49;59575.56;;;-144.06;19.57
11017;BME280;54687;50.800;6.772;2023-06-04T10:52:16;59579.75;;;-144.06;19.32
11017;BME280;54687;50.800;6.772;2023-06-04T10:54:43;59546.22;;;-144.06;19.20
11017;BME280;54687;50.800;6.772;2023-06-04T10:57:11;59583.94;;;-144.06;19.54
11017;BME280;54687;50.800;6.772;2023-06-04T10:59:38;59577.66;;;-144.06;19.70
11017;BME280;54687;50.800;6.772;2023-06-04T11:02:05;59537.84;;;-144.06;19.43
11017;BME280;54687;50.800;6.772;2023-06-04T11:04:32;59571.38;;;-144.06;19.32
11017;BME280;54687;50.800;6.772;2023-06-04T11:07:04;59554.63;;;-144.06;19.03
11017;BME280;54687;50.800;6.772;2023-06-04T11:09:34;59552.53;;;-144.06;18.94
11017;BME280;54687;50.800;6.772;2023-06-04T11:12:01;59558.81;;;-144.06;19.17
11017;BME280;54687;50.800;6.772;2023-06-04T11:14:28;59466.63;;;-144.06;19.04
11017;BME280;54687;50.800;6.772;2023-06-04T11:16:55;59489.66;;;-144.06;18.94
11017;BME280;54687;50.800;6.772;2023-06-04T11:19:22;59537.84;;;-144.06;18.92
11017;BME280;54687;50.800;6.772;2023-06-04T11:21:49;59596.53;;;-144.06;19.14
11017;BME280;54687;50.800;6.772;2023-06-04T11:24:17;59544.13;;;-144.06;19.32
11017;BME280;54687;50.800;6.772;2023-06-04T11:26:44;59542.03;;;-144.06;18.88
11017;BME280;54687;50.800;6.772;2023-06-04T11:29:11;59575.56;;;-144.06;19.09
11017;BME280;54687;50.800;6.772;2023-06-04T11:31:42;59558.81;;;-144.06;18.67
11017;BME280;54687;50.800;6.772;2023-06-04T11:34:09;59569.28;;;-144.06;18.67
11017;BME280;54687;50.800;6.772;2023-06-04T11:36:37;59491.75;;;-144.06;18.99
11017;BME280;54687;50.800;6.772;2023-06-04T11:39:04;59531.56;;;-144.06;18.77
11017;BME280;54687;50.800;6.772;2023-06-04T11:41:34;59563.00;;;-144.06;18.92
11017;BME280;54687;50.800;6.772;2023-06-04T11:44:02;59552.53;;;-144.06;18.89
11017;BME280;54687;50.800;6.772;2023-06-04T11:46:30;59571.38;;;-144.06;18.96
11017;BME280;54687;50.800;6.772;2023-06-04T11:48:57;59621.66;;;-144.06;18.98
11017;BME280;54687;50.800;6.772;2023-06-04T11:51:24;59583.94;;;-144.06;19.09
11017;BME280;54687;50.800;6.772;2023-06-04T11:53:51;59569.28;;;-144.06;18.98
11017;BME280;54687;50.800;6.772;2023-06-04T11:56:18;59539.94;;;-144.06;19.02
11017;BME280;54687;50.800;6.772;2023-06-04T11:58:47;59521.09;;;-144.06;19.06
11017;BME280;54687;50.800;6.772;2023-06-04T12:01:13;59495.94;;;-144.06;18.72
11017;BME280;54687;50.800;6.772;2023-06-04T12:03:41;59491.75;;;-144.06;18.95
11017;BME280;54687;50.800;6.772;2023-06-04T12:06:13;59454.03;;;-144.06;18.67
11017;BME280;54687;50.800;6.772;2023-06-04T12:08:45;59483.38;;;-144.06;18.75
11017;BME280;54687;50.800;6.772;2023-06-04T12:11:24;59475.00;;;-144.06;18.54
11017;BME280;54687;50.800;6.772;2023-06-04T12:13:54;59466.63;;;-144.06;18.75
11017;BME280;54687;50.800;6.772;2023-06-04T12:16:21;59521.09;;;-144.06;18.84
11017;BME280;54687;50.800;6.772;2023-06-04T12:18:48;59519.00;;;-144.06;18.77
11017;BME280;54687;50.800;6.772;2023-06-04T12:21:17;59529.47;;;-144.06;18.67
11017;BME280;54687;50.800;6.772;2023-06-04T12:23:45;59464.53;;;-144.06;18.64
11017;BME280;54687;50.800;6.772;2023-06-04T12:26:20;59483.38;;;-144.06;18.88
11017;BME280;54687;50.800;6.772;2023-06-04T12:29:01;59502.22;;;-144.06;19.04
11017;BME280;54687;50.800;6.772;2023-06-04T12:31:29;59508.53;;;-144.06;18.92
11017;BME280;54687;50.800;6.772;2023-06-04T12:33:59;59537.84;;;-144.06;18.82
11017;BME280;54687;50.800;6.772;2023-06-04T12:36:26;59525.28;;;-144.06;18.87
11017;BME280;54687;50.800;6.772;2023-06-04T12:38:58;59516.91;;;-144.06;18.97
11017;BME280;54687;50.800;6.772;2023-06-04T12:41:25;59533.66;;;-144.06;18.54
11017;BME280;54687;50.800;6.772;2023-06-04T12:43:52;59475.00;;;-144.06;18.72